Time;durP1;ratioP1;P1;durP2;ratioP2;P2;SDS_P1;SDS_P2;PMS_P1;PMS_P2;Temp;Humidity;BMP_temperature;BMP_pressure;BME280_temperature;BME280_humidity;BME280_pressure;Samples;Min_cycle;Max_cycle;Signal;HPM_P1;HPM_P2
2022/11/06 00:00:17;;;;;;;8.63;4.15;;;8.20;99.90;;;;;;5047533;28;20032;-85
2022/11/06 00:02:43;;;;;;;11.18;4.85;;;8.20;99.90;;;;;;5049803;28;20599;-85
2022/11/06 00:07:54;;;;;;;10.43;4.72;;;8.10;99.90;;;;;;5060225;28;20595;-85
2022/11/06 00:10:20;;;;;;;13.25;4.97;;;8.10;99.90;;;;;;5044286;28;20140;-85
2022/11/06 00:12:45;;;;;;;8.23;4.40;;;8.00;99.90;;;;;;5051507;28;20035;-85
2022/11/06 00:15:11;;;;;;;10.50;4.45;;;8.00;99.90;;;;;;5043042;28;20028;-84
2022/11/06 00:17:37;;;;;;;8.25;4.28;;;8.00;99.90;;;;;;5028330;28;20044;-83
2022/11/06 00:20:04;;;;;;;14.05;4.15;;;8.00;99.90;;;;;;5040644;28;20033;-84
2022/11/06 00:22:34;;;;;;;9.90;3.88;;;8.00;99.90;;;;;;5058636;28;20032;-86
2022/11/06 00:25:00;;;;;;;6.57;3.85;;;8.00;99.90;;;;;;5049007;28;20037;-86
2022/11/06 00:27:26;;;;;;;12.65;4.25;;;8.00;99.90;;;;;;5047977;28;20052;-85
2022/11/06 00:29:52;;;;;;;9.07;4.38;;;8.00;99.90;;;;;;5046125;28;20397;-84
2022/11/06 00:32:18;;;;;;;9.10;4.13;;;7.90;99.90;;;;;;5054005;28;20032;-85
2022/11/06 00:34:43;;;;;;;10.05;3.90;;;8.00;99.90;;;;;;5049675;28;20036;-85
2022/11/06 00:37:09;;;;;;;15.68;4.93;;;7.90;99.90;;;;;;5047282;28;20033;-83
2022/11/06 00:39:35;;;;;;;12.68;3.83;;;7.90;99.90;;;;;;5051049;28;20037;-83
2022/11/06 00:42:00;;;;;;;4.82;3.67;;;7.90;99.90;;;;;;5041145;28;20021;-83
2022/11/06 00:44:26;;;;;;;12.75;3.65;;;7.70;99.90;;;;;;5049258;28;20112;-85
2022/11/06 00:46:51;;;;;;;7.40;3.63;;;7.60;99.90;;;;;;5046182;28;20021;-83
2022/11/06 00:49:17;;;;;;;8.73;4.03;;;7.50;99.90;;;;;;5058140;28;20025;-86
2022/11/06 00:51:43;;;;;;;8.93;4.68;;;7.40;99.90;;;;;;5044238;28;20040;-85
2022/11/06 00:54:12;;;;;;;8.88;4.47;;;7.30;99.90;;;;;;5042345;28;20029;-85
2022/11/06 00:56:39;;;;;;;9.57;4.10;;;7.30;99.90;;;;;;5050883;28;20038;-82
2022/11/06 00:59:07;;;;;;;7.68;3.90;;;7.30;99.90;;;;;;5035627;28;20124;-85
2022/11/06 01:01:37;;;;;;;8.02;4.55;;;7.30;99.90;;;;;;5049822;28;20254;-85
2022/11/06 01:04:06;;;;;;;8.82;5.00;;;7.30;99.90;;;;;;5056802;28;20051;-85
2022/11/06 01:06:37;;;;;;;11.88;5.30;;;7.30;99.90;;;;;;5038093;28;20098;-84
2022/11/06 01:09:03;;;;;;;16.55;6.13;;;7.30;99.90;;;;;;5049716;28;20028;-85
2022/11/06 01:11:35;;;;;;;17.67;7.05;;;7.30;99.90;;;;;;5046822;28;20076;-85
2022/11/06 01:14:03;;;;;;;14.40;6.88;;;7.30;99.90;;;;;;5046708;28;20135;-85
2022/11/06 01:16:30;;;;;;;15.38;6.30;;;7.40;99.90;;;;;;5043758;28;20416;-86
2022/11/06 01:18:56;;;;;;;17.80;6.47;;;7.40;99.90;;;;;;5045182;28;20035;-86
2022/11/06 01:21:29;;;;;;;14.57;5.90;;;7.40;99.90;;;;;;5037995;28;20350;-85
2022/11/06 01:24:00;;;;;;;13.27;6.50;;;7.50;99.90;;;;;;5050749;28;20459;-82
2022/11/06 01:26:27;;;;;;;12.45;6.13;;;7.50;99.90;;;;;;5052020;28;20040;-84
2022/11/06 01:28:53;;;;;;;9.23;5.72;;;7.50;99.90;;;;;;5057729;28;20499;-86
2022/11/06 01:31:22;;;;;;;14.63;6.22;;;7.50;99.90;;;;;;5053512;28;20041;-85
2022/11/06 01:33:48;;;;;;;9.75;5.75;;;7.50;99.90;;;;;;5045615;28;20068;-85
2022/11/06 01:36:16;;;;;;;13.70;7.18;;;7.50;99.90;;;;;;5050107;28;20028;-86
2022/11/06 01:38:44;;;;;;;8.02;5.13;;;7.50;99.90;;;;;;5038857;28;20055;-85
2022/11/06 01:41:48;;;;;;;20.58;7.43;;;7.50;99.90;;;;;;5046853;28;20033;-85
2022/11/06 01:44:32;;;;;;;12.25;6.53;;;7.50;99.90;;;;;;5051094;28;20016;-85
2022/11/06 01:46:59;;;;;;;12.32;6.75;;;7.50;99.90;;;;;;5051699;28;20227;-86
2022/11/06 01:49:27;;;;;;;10.98;5.97;;;7.50;99.90;;;;;;5054244;28;20495;-86
2022/11/06 01:51:59;;;;;;;12.95;6.47;;;7.40;99.90;;;;;;5030927;28;20030;-85
2022/11/06 01:54:28;;;;;;;12.73;6.13;;;7.40;99.90;;;;;;5043606;28;20040;-86
2022/11/06 01:56:59;;;;;;;11.73;5.85;;;7.40;99.90;;;;;;5041456;28;20045;-86
2022/11/06 01:59:29;;;;;;;10.68;5.55;;;7.30;99.90;;;;;;5050038;28;20033;-85
2022/11/06 02:01:54;;;;;;;8.98;5.90;;;7.30;99.90;;;;;;5046779;28;20025;-85
2022/11/06 02:04:24;;;;;;;12.43;5.38;;;7.30;99.90;;;;;;5054227;28;20049;-85
2022/11/06 02:06:50;;;;;;;11.20;5.43;;;7.20;99.90;;;;;;5039598;28;20044;-85
2022/11/06 02:09:17;;;;;;;11.80;6.68;;;7.20;99.90;;;;;;5046338;28;20027;-86
2022/11/06 02:11:50;;;;;;;21.65;7.03;;;7.20;99.90;;;;;;5040990;28;20045;-85
2022/11/06 02:14:41;;;;;;;14.43;6.28;;;7.00;99.90;;;;;;5031835;28;20048;-86
2022/11/06 02:17:30;;;;;;;13.88;6.47;;;7.00;99.90;;;;;;5042735;28;20116;-85
2022/11/06 02:20:17;;;;;;;19.38;7.20;;;7.00;99.90;;;;;;5027964;28;20072;-85
2022/11/06 02:23:16;;;;;;;11.23;7.00;;;7.00;99.90;;;;;;5037756;28;20036;-85
2022/11/06 02:26:00;;;;;;;12.50;7.28;;;6.90;99.90;;;;;;5037416;28;20091;-86
2022/11/06 02:28:40;;;;;;;15.07;7.45;;;6.90;99.90;;;;;;5043476;28;20037;-85
2022/11/06 02:31:12;;;;;;;18.52;6.20;;;6.90;99.90;;;;;;5049011;28;20123;-85
2022/11/06 02:33:46;;;;;;;14.30;6.60;;;6.90;99.90;;;;;;5042093;28;20029;-86
2022/11/06 02:36:17;;;;;;;14.27;6.55;;;6.90;99.90;;;;;;5036674;28;20033;-85
2022/11/06 02:38:49;;;;;;;9.23;5.43;;;6.90;99.90;;;;;;5033331;28;20033;-84
2022/11/06 02:41:24;;;;;;;9.13;5.53;;;6.80;99.90;;;;;;5043140;28;20115;-84
2022/11/06 02:43:54;;;;;;;;;;;6.80;99.90;;;;;;5041506;28;20091;-86
2022/11/06 02:46:46;;;;;;;10.20;6.55;;;6.80;99.90;;;;;;5039733;28;19960;-86
2022/11/06 02:49:38;;;;;;;16.85;7.47;;;6.80;99.90;;;;;;5047629;28;20504;-85
2022/11/06 02:52:28;;;;;;;15.80;7.75;;;6.80;99.90;;;;;;5053803;28;20116;-85
2022/11/06 02:55:08;;;;;;;20.27;8.55;;;6.70;99.90;;;;;;5043979;28;20104;-85
2022/11/06 02:57:37;;;;;;;13.88;7.88;;;6.80;99.90;;;;;;5040066;28;20067;-85
2022/11/06 03:00:03;;;;;;;17.65;7.65;;;6.80;99.90;;;;;;5040663;28;20037;-85
2022/11/06 03:02:54;;;;;;;12.77;7.38;;;6.80;99.90;;;;;;5047009;28;20032;-85
2022/11/06 03:05:36;;;;;;;16.85;7.80;;;6.90;99.90;;;;;;5053250;28;20037;-84
2022/11/06 03:08:15;;;;;;;15.38;7.72;;;7.00;99.90;;;;;;5049436;28;20545;-86
2022/11/06 03:10:58;;;;;;;14.02;6.95;;;7.00;99.90;;;;;;5046421;28;20041;-86
2022/11/06 03:13:50;;;;;;;10.63;6.65;;;7.10;99.90;;;;;;5044281;28;20033;-85
2022/11/06 03:16:31;;;;;;;17.45;7.40;;;7.10;99.90;;;;;;5055141;28;20029;-85
2022/11/06 03:19:06;;;;;;;12.90;7.72;;;7.10;99.90;;;;;;5054890;28;20029;-85
2022/11/06 03:21:49;;;;;;;14.18;7.93;;;7.10;99.90;;;;;;5055381;28;20025;-85
2022/11/06 03:24:22;;;;;;;13.95;7.57;;;7.10;99.90;;;;;;5045800;28;20142;-86
2022/11/06 03:26:51;;;;;;;14.18;7.82;;;7.10;99.90;;;;;;5046696;28;20025;-87
2022/11/06 03:29:40;;;;;;;16.27;8.95;;;7.20;99.90;;;;;;5053255;28;20470;-86
2022/11/06 03:32:12;;;;;;;19.30;6.43;;;7.20;99.90;;;;;;5050634;28;20411;-84
2022/11/06 03:34:47;;;;;;;20.98;8.63;;;7.20;99.90;;;;;;5044950;28;20384;-85
2022/11/06 03:37:19;;;;;;;11.25;6.43;;;7.20;99.90;;;;;;5043684;28;20029;-85
2022/11/06 03:39:52;;;;;;;14.15;6.85;;;7.20;99.90;;;;;;5058037;28;20036;-85
2022/11/06 03:42:27;;;;;;;24.50;8.25;;;7.20;99.90;;;;;;5053039;28;20472;-85
2022/11/06 03:45:01;;;;;;;20.67;8.00;;;7.20;99.90;;;;;;5049304;28;20551;-85
2022/11/06 03:47:39;;;;;;;13.45;7.30;;;7.30;99.90;;;;;;5054373;28;20283;-86
2022/11/06 03:50:25;;;;;;;14.50;7.15;;;7.30;99.90;;;;;;5046733;28;20055;-86
2022/11/06 03:52:57;;;;;;;11.93;6.57;;;7.40;99.90;;;;;;5055475;28;20028;-85
2022/11/06 03:55:32;;;;;;;18.05;6.90;;;7.40;99.90;;;;;;5052985;28;20040;-85
2022/11/06 03:58:04;;;;;;;15.73;7.25;;;7.50;99.90;;;;;;5051745;28;20095;-86
2022/11/06 04:00:32;;;;;;;14.20;7.00;;;7.50;99.90;;;;;;5050201;28;20457;-85
2022/11/06 04:03:05;;;;;;;18.85;7.45;;;7.50;99.90;;;;;;5048567;28;20086;-86
2022/11/06 04:05:40;;;;;;;14.52;7.15;;;7.50;99.90;;;;;;5046628;28;20371;-86
2022/11/06 04:13:59;;;;;;;24.10;8.20;;;7.70;99.90;;;;;;5044924;28;20047;-88
2022/11/06 04:16:30;;;;;;;16.63;5.78;;;7.80;99.90;;;;;;5039312;28;20025;-87
2022/11/06 04:18:56;;;;;;;22.90;8.43;;;7.80;99.90;;;;;;5039288;28;20548;-86
2022/11/06 04:21:50;;;;;;;12.40;6.53;;;7.80;99.90;;;;;;5043290;28;20108;-84
2022/11/06 04:27:54;;;;;;;16.27;7.85;;;7.90;99.90;;;;;;5026026;28;20091;-85
2022/11/06 04:30:20;;;;;;;15.93;7.18;;;7.90;99.90;;;;;;5045219;28;20117;-86
2022/11/06 04:33:14;;;;;;;14.52;6.85;;;7.80;99.90;;;;;;5044651;28;20434;-83
2022/11/06 04:35:52;;;;;;;28.63;6.55;;;7.80;99.90;;;;;;5046073;28;20029;-84
2022/11/06 04:38:29;;;;;;;17.52;6.50;;;7.80;99.90;;;;;;5047634;28;20017;-86
2022/11/06 04:41:11;;;;;;;13.15;5.85;;;7.80;99.90;;;;;;5042670;28;20063;-84
2022/11/06 04:43:48;;;;;;;15.55;6.80;;;7.80;99.90;;;;;;5044387;28;20027;-87
2022/11/06 04:46:27;;;;;;;11.07;6.03;;;7.80;99.90;;;;;;5045031;28;20020;-89
2022/11/06 04:48:54;;;;;;;14.18;7.13;;;7.80;99.90;;;;;;5048888;28;20362;-84
2022/11/06 04:51:24;;;;;;;14.68;6.55;;;7.80;99.90;;;;;;5044904;28;20378;-88
2022/11/06 04:53:51;;;;;;;16.13;6.28;;;7.80;99.90;;;;;;5026345;28;20445;-84
2022/11/06 04:56:24;;;;;;;12.27;5.85;;;7.80;99.90;;;;;;5046436;28;20020;-89
2022/11/06 04:58:50;;;;;;;14.45;6.60;;;7.80;99.90;;;;;;5042879;28;20041;-80
2022/11/06 05:01:15;;;;;;;18.20;7.00;;;7.80;99.90;;;;;;5045726;28;20051;-86
2022/11/06 05:03:44;;;;;;;17.80;7.82;;;7.80;99.90;;;;;;5042502;28;20082;-87
2022/11/06 05:06:12;;;;;;;14.55;6.25;;;7.80;99.90;;;;;;5039551;28;20029;-87
2022/11/06 05:08:41;;;;;;;15.25;6.72;;;7.80;99.90;;;;;;5044016;28;20026;-89
2022/11/06 05:11:06;;;;;;;20.65;8.20;;;7.80;99.90;;;;;;5044595;28;20049;-86
2022/11/06 05:13:32;;;;;;;20.80;7.28;;;7.80;99.90;;;;;;5042025;28;20099;-84
2022/11/06 05:16:01;;;;;;;15.57;7.97;;;7.80;99.90;;;;;;5042718;28;20984;-87
2022/11/06 05:18:30;;;;;;;20.50;7.82;;;7.80;99.90;;;;;;5041820;28;20036;-88
2022/11/06 05:23:50;;;;;;;16.33;7.68;;;7.70;99.90;;;;;;5040858;28;20090;-90
2022/11/06 05:26:19;;;;;;;13.32;6.85;;;7.70;99.90;;;;;;5046301;28;20025;-86
2022/11/06 05:28:44;;;;;;;17.80;7.95;;;7.70;99.90;;;;;;5041735;28;20111;-84
2022/11/06 05:31:13;;;;;;;17.35;8.18;;;7.70;99.90;;;;;;5041759;28;20124;-85
2022/11/06 05:33:41;;;;;;;20.23;8.45;;;7.60;99.90;;;;;;5037080;28;20060;-88
2022/11/06 05:36:09;;;;;;;26.88;9.00;;;7.60;99.90;;;;;;5035634;28;20473;-89
2022/11/06 05:38:37;;;;;;;12.60;7.05;;;7.60;99.90;;;;;;5036691;28;20040;-88
2022/11/06 05:41:06;;;;;;;20.90;7.50;;;7.60;99.90;;;;;;5045358;28;20039;-86
2022/11/06 05:43:34;;;;;;;24.48;8.73;;;7.60;99.90;;;;;;5040142;28;20021;-85
2022/11/06 05:46:00;;;;;;;21.48;8.35;;;7.60;99.90;;;;;;5046650;28;20029;-85
2022/11/06 05:48:27;;;;;;;25.10;8.00;;;7.60;99.90;;;;;;5036759;28;20470;-89
2022/11/06 05:50:53;;;;;;;19.58;7.63;;;7.60;99.90;;;;;;5044344;28;20033;-88
2022/11/06 05:53:18;;;;;;;18.98;9.13;;;7.60;99.90;;;;;;5036424;28;20021;-90
2022/11/06 05:55:50;;;;;;;17.02;7.55;;;7.60;99.90;;;;;;5042258;28;20032;-88
2022/11/06 05:58:16;;;;;;;20.15;8.68;;;7.50;99.90;;;;;;5037775;28;20548;-90
2022/11/06 06:00:41;;;;;;;17.48;7.45;;;7.50;99.90;;;;;;5045673;28;20227;-87
2022/11/06 06:03:07;;;;;;;20.58;7.68;;;7.60;99.90;;;;;;5051648;28;20024;-86
2022/11/06 06:05:33;;;;;;;16.60;6.95;;;7.50;99.90;;;;;;5053118;28;20041;-85
2022/11/06 06:07:58;;;;;;;17.65;7.50;;;7.60;99.90;;;;;;5041710;28;20028;-85
2022/11/06 06:10:24;;;;;;;18.83;7.47;;;7.60;99.90;;;;;;5042201;28;20044;-82
2022/11/06 06:12:50;;;;;;;17.90;6.43;;;7.70;99.90;;;;;;5039512;28;20528;-89
2022/11/06 06:15:16;;;;;;;16.75;6.38;;;7.60;99.90;;;;;;5041076;28;20033;-88
2022/11/06 06:17:42;;;;;;;22.58;6.65;;;7.60;99.90;;;;;;5039127;28;20441;-88
2022/11/06 06:20:11;;;;;;;18.80;6.88;;;7.60;99.90;;;;;;5043030;28;20033;-86
2022/11/06 06:22:36;;;;;;;17.13;6.85;;;7.60;99.90;;;;;;5043591;28;20033;-85
2022/11/06 06:25:03;;;;;;;21.42;7.85;;;7.70;99.90;;;;;;5043126;28;20040;-84
2022/11/06 06:27:30;;;;;;;13.60;5.75;;;7.70;99.90;;;;;;5048476;28;20029;-87
2022/11/06 06:29:55;;;;;;;17.13;5.78;;;7.60;99.90;;;;;;5044856;28;20490;-86
2022/11/06 06:32:21;;;;;;;11.05;5.47;;;7.60;99.90;;;;;;5046744;28;20021;-86
2022/11/06 06:34:47;;;;;;;13.23;5.30;;;7.60;99.90;;;;;;5044327;28;20067;-85
2022/11/06 06:37:13;;;;;;;13.40;4.88;;;7.70;99.90;;;;;;5039227;28;20081;-83
2022/11/06 06:39:38;;;;;;;17.58;5.30;;;7.80;99.90;;;;;;5036991;28;20530;-86
2022/11/06 06:42:04;;;;;;;17.60;5.45;;;7.70;99.90;;;;;;5041947;28;20029;-86
2022/11/06 06:44:32;;;;;;;11.60;4.30;;;7.70;99.90;;;;;;5040954;28;20028;-86
2022/11/06 06:46:58;;;;;;;8.32;4.07;;;7.70;99.90;;;;;;5039459;28;20028;-86
2022/11/06 06:49:24;;;;;;;14.20;5.65;;;7.70;99.90;;;;;;5049179;28;20040;-84
2022/11/06 06:51:54;;;;;;;8.55;4.35;;;7.70;99.90;;;;;;5046384;28;20033;-88
2022/11/06 06:54:22;;;;;;;8.82;4.38;;;7.70;99.90;;;;;;5039153;28;20039;-87
2022/11/06 06:56:47;;;;;;;20.38;5.00;;;7.70;99.90;;;;;;5042057;28;20512;-86
2022/11/06 06:59:16;;;;;;;11.20;4.40;;;7.70;99.90;;;;;;5042048;28;20040;-87
2022/11/06 07:01:41;;;;;;;8.93;4.25;;;7.70;99.90;;;;;;5048730;28;20067;-87
2022/11/06 07:04:09;;;;;;;14.25;4.25;;;7.60;99.90;;;;;;5049743;28;20095;-86
2022/11/06 07:06:35;;;;;;;10.43;3.60;;;7.70;99.90;;;;;;5034795;28;20423;-87
2022/11/06 07:09:01;;;;;;;10.70;3.90;;;7.70;99.90;;;;;;5045979;28;20040;-86
2022/11/06 07:11:26;;;;;;;19.48;5.40;;;7.70;99.90;;;;;;5045499;28;20041;-85
2022/11/06 07:13:52;;;;;;;13.55;4.30;;;7.70;99.90;;;;;;5044299;28;20024;-86
2022/11/06 07:16:17;;;;;;;15.25;4.95;;;7.70;99.90;;;;;;5043232;28;20021;-87
2022/11/06 07:18:43;;;;;;;11.95;4.05;;;7.70;99.90;;;;;;5038713;28;20161;-87
2022/11/06 07:21:11;;;;;;;11.15;3.50;;;7.80;99.90;;;;;;5043867;28;20534;-86
2022/11/06 07:23:37;;;;;;;7.95;4.07;;;7.90;99.90;;;;;;5043055;28;20028;-90
2022/11/06 07:26:03;;;;;;;12.50;3.90;;;7.90;99.90;;;;;;5046458;28;20068;-85
2022/11/06 07:28:29;;;;;;;9.93;3.55;;;8.00;99.90;;;;;;5050509;28;20025;-85
2022/11/06 07:30:59;;;;;;;13.52;4.22;;;8.00;99.90;;;;;;5041364;28;20033;-86
2022/11/06 07:33:25;;;;;;;10.88;3.85;;;8.00;99.90;;;;;;5054293;28;20044;-86
2022/11/06 07:35:51;;;;;;;10.38;3.63;;;8.00;99.90;;;;;;5037065;28;20036;-87
2022/11/06 07:38:17;;;;;;;15.10;4.13;;;8.00;99.90;;;;;;5047346;28;20029;-86
2022/11/06 07:40:42;;;;;;;7.93;3.25;;;8.00;99.90;;;;;;5039043;28;20033;-87
2022/11/06 07:43:10;;;;;;;10.25;3.60;;;8.00;99.90;;;;;;5037890;28;20141;-84
2022/11/06 07:45:37;;;;;;;9.48;3.42;;;8.00;99.90;;;;;;5047119;28;20166;-86
2022/11/06 07:48:04;;;;;;;9.90;3.90;;;8.00;99.90;;;;;;5047850;28;20029;-87
2022/11/06 07:50:30;;;;;;;16.05;4.90;;;8.10;99.90;;;;;;5041898;28;20049;-86
2022/11/06 07:52:56;;;;;;;17.05;4.00;;;8.10;99.90;;;;;;5048714;28;20025;-86
2022/11/06 07:55:23;;;;;;;15.00;4.25;;;8.10;99.90;;;;;;5045256;28;20024;-87
2022/11/06 07:57:48;;;;;;;8.35;3.13;;;8.20;99.90;;;;;;5039604;28;20155;-86
2022/11/06 08:00:14;;;;;;;13.50;3.53;;;8.20;99.90;;;;;;5048263;28;20111;-83
2022/11/06 08:02:40;;;;;;;9.82;3.08;;;8.20;99.90;;;;;;5041431;28;20021;-85
2022/11/06 08:05:06;;;;;;;9.98;3.55;;;8.30;99.90;;;;;;5047263;28;20043;-88
2022/11/06 08:07:32;;;;;;;10.30;3.22;;;8.30;99.90;;;;;;5044720;28;20600;-85
2022/11/06 08:09:57;;;;;;;9.57;3.35;;;8.30;99.90;;;;;;5046862;28;20538;-86
2022/11/06 08:12:23;;;;;;;13.10;3.65;;;8.30;99.90;;;;;;5043409;28;20025;-87
2022/11/06 08:14:49;;;;;;;10.38;3.70;;;8.30;99.90;;;;;;5050164;28;20087;-86
2022/11/06 08:17:15;;;;;;;16.58;3.50;;;8.30;99.90;;;;;;5044091;28;20036;-82
2022/11/06 08:19:41;;;;;;;10.52;3.33;;;8.40;99.90;;;;;;5043733;28;20037;-88
2022/11/06 08:22:07;;;;;;;9.23;3.55;;;8.40;99.90;;;;;;5048896;28;20469;-86
2022/11/06 08:24:33;;;;;;;10.52;2.97;;;8.40;99.90;;;;;;5049032;28;20388;-87
2022/11/06 08:26:59;;;;;;;15.90;4.05;;;8.50;99.90;;;;;;5045235;28;20456;-88
2022/11/06 08:29:25;;;;;;;17.13;3.88;;;8.50;99.90;;;;;;5043505;28;20029;-88
2022/11/06 08:31:51;;;;;;;12.98;3.90;;;8.60;99.90;;;;;;5042935;28;20397;-86
2022/11/06 08:34:16;;;;;;;8.65;2.80;;;8.60;99.90;;;;;;5043129;28;20052;-87
2022/11/06 08:36:44;;;;;;;11.57;2.80;;;8.70;99.90;;;;;;5028425;28;20035;-87
2022/11/06 08:39:11;;;;;;;12.68;2.90;;;8.60;99.90;;;;;;5044280;28;20587;-88
2022/11/06 08:41:38;;;;;;;13.40;4.07;;;8.70;99.90;;;;;;5047796;28;20024;-87
2022/11/06 08:44:04;;;;;;;8.82;2.97;;;8.70;99.90;;;;;;5043127;28;20105;-88
2022/11/06 08:46:29;;;;;;;9.60;3.28;;;8.70;99.90;;;;;;5048057;28;20108;-87
2022/11/06 08:48:55;;;;;;;13.82;3.88;;;8.70;99.90;;;;;;5048474;28;20020;-87
2022/11/06 08:51:20;;;;;;;7.45;2.83;;;8.70;99.90;;;;;;5049012;28;20714;-87
2022/11/06 08:53:46;;;;;;;12.75;3.05;;;8.70;99.90;;;;;;5039468;28;20500;-89
2022/11/06 08:56:13;;;;;;;11.77;3.20;;;8.80;99.90;;;;;;5051880;28;20036;-87
2022/11/06 08:58:38;;;;;;;11.98;3.78;;;8.80;99.90;;;;;;5043425;28;20049;-86
2022/11/06 09:01:05;;;;;;;6.90;2.63;;;8.80;99.90;;;;;;5039186;28;20031;-84
2022/11/06 09:03:30;;;;;;;15.23;3.65;;;8.80;99.90;;;;;;5043697;28;20079;-85
2022/11/06 09:05:56;;;;;;;9.93;3.35;;;8.90;99.90;;;;;;5034888;28;20457;-86
2022/11/06 09:08:23;;;;;;;13.23;4.97;;;8.80;99.90;;;;;;5047700;28;20473;-88
2022/11/06 09:10:49;;;;;;;12.48;3.90;;;8.90;99.90;;;;;;5024456;28;20094;-87
2022/11/06 09:13:15;;;;;;;11.60;3.13;;;8.90;99.90;;;;;;5047437;28;20054;-88
2022/11/06 09:15:40;;;;;;;10.80;3.30;;;9.00;99.90;;;;;;5041534;28;20040;-89
2022/11/06 09:18:07;;;;;;;10.13;2.85;;;9.00;99.90;;;;;;5030364;28;20167;-87
2022/11/06 09:20:32;;;;;;;11.23;3.45;;;9.00;99.90;;;;;;5038352;28;20524;-87
2022/11/06 09:23:03;;;;;;;10.00;3.70;;;9.00;99.90;;;;;;5052463;28;20033;-87
2022/11/06 09:25:29;;;;;;;13.60;4.18;;;9.00;99.90;;;;;;5041885;28;20358;-88
2022/11/06 09:27:54;;;;;;;12.32;3.53;;;9.10;99.90;;;;;;5034130;28;20037;-91
2022/11/06 09:30:22;;;;;;;16.67;4.03;;;9.00;99.90;;;;;;5040609;28;20127;-86
2022/11/06 09:32:52;;;;;;;8.70;2.97;;;9.00;99.90;;;;;;5048534;28;20025;-88
2022/11/06 09:35:19;;;;;;;5.80;2.75;;;9.10;99.90;;;;;;5039106;28;20437;-87
2022/11/06 09:37:44;;;;;;;6.95;2.70;;;9.10;99.90;;;;;;5047191;28;20061;-88
2022/11/06 09:40:33;;;;;;;9.27;3.45;;;9.10;99.90;;;;;;5029283;28;20115;-88
2022/11/06 09:43:18;;;;;;;7.22;3.05;;;9.10;99.90;;;;;;5041103;28;20029;-88
2022/11/06 09:45:47;;;;;;;13.38;3.45;;;9.10;99.90;;;;;;5054302;28;20366;-90
2022/11/06 09:48:34;;;;;;;11.43;3.47;;;9.20;99.90;;;;;;5050199;28;20036;-87
2022/11/06 09:51:41;;;;;;;17.02;3.92;;;9.20;99.90;;;;;;5038582;28;20088;-90
2022/11/06 09:54:12;;;;;;;15.50;4.28;;;9.40;99.90;;;;;;5019883;28;20061;-88
2022/11/06 09:56:40;;;;;;;11.40;3.75;;;9.40;99.90;;;;;;5043741;28;20037;-90
2022/11/06 09:59:11;;;;;;;18.80;4.63;;;9.40;99.90;;;;;;5054629;28;20063;-90
2022/11/06 10:01:53;;;;;;;9.32;3.10;;;9.50;99.90;;;;;;5044516;28;20436;-85
2022/11/06 10:04:24;;;;;;;17.98;4.35;;;9.60;99.90;;;;;;5043699;28;20041;-88
2022/11/06 10:06:50;;;;;;;12.63;3.45;;;9.60;99.90;;;;;;5042566;28;20037;-88
2022/11/06 10:09:16;;;;;;;21.10;3.75;;;9.70;99.90;;;;;;5040686;28;20036;-88
2022/11/06 10:11:51;;;;;;;10.52;2.78;;;9.70;99.90;;;;;;5040818;28;20041;-88
2022/11/06 10:14:22;;;;;;;9.57;3.50;;;9.80;99.90;;;;;;5043895;28;20075;-87
2022/11/06 10:17:05;;;;;;;11.50;3.10;;;9.80;99.90;;;;;;5046842;28;20033;-89
2022/11/06 10:19:38;;;;;;;16.70;3.10;;;9.90;99.90;;;;;;5044827;28;20051;-87
2022/11/06 10:22:14;;;;;;;13.45;2.80;;;9.90;99.90;;;;;;5043696;28;20032;-87
2022/11/06 10:25:00;;;;;;;11.52;3.05;;;10.00;99.90;;;;;;5046292;28;20017;-88
2022/11/06 10:27:38;;;;;;;10.77;2.67;;;10.10;99.90;;;;;;5048958;28;20396;-89
2022/11/06 10:30:07;;;;;;;11.45;2.60;;;10.10;99.90;;;;;;5039220;28;20408;-84
2022/11/06 10:33:01;;;;;;;9.02;2.17;;;10.20;99.90;;;;;;5045239;28;20037;-85
2022/11/06 10:35:30;;;;;;;10.23;2.80;;;10.30;99.90;;;;;;5041506;28;20466;-87
2022/11/06 10:38:17;;;;;;;12.25;2.58;;;10.30;99.90;;;;;;5028636;28;20389;-87
2022/11/06 10:40:45;;;;;;;10.90;3.00;;;10.40;99.90;;;;;;5045219;28;20037;-85
2022/11/06 10:43:39;;;;;;;11.20;2.42;;;10.40;99.90;;;;;;5039942;28;20029;-85
2022/11/06 10:46:25;;;;;;;10.90;2.67;;;10.30;99.90;;;;;;5037680;28;20025;-84
2022/11/06 10:48:57;;;;;;;11.40;3.33;;;10.40;99.90;;;;;;5043643;28;20055;-85
2022/11/06 10:51:34;;;;;;;10.00;2.42;;;10.50;99.90;;;;;;5045011;28;20489;-89
2022/11/06 10:54:29;;;;;;;10.98;2.42;;;10.50;99.90;;;;;;5038515;28;20465;-86
2022/11/06 10:57:10;;;;;;;10.05;2.20;;;10.60;99.90;;;;;;5032891;28;20494;-87
2022/11/06 10:59:36;;;;;;;21.10;4.60;;;10.50;99.90;;;;;;5032888;28;20119;-87
2022/11/06 11:02:02;;;;;;;11.43;2.60;;;10.70;99.90;;;;;;5040653;28;20117;-86
2022/11/06 11:04:31;;;;;;;6.65;1.98;;;10.70;99.90;;;;;;5040093;28;20475;-86
2022/11/06 11:07:05;;;;;;;11.63;2.42;;;10.70;99.90;;;;;;5035507;28;20061;-86
2022/11/06 11:09:32;;;;;;;7.70;2.00;;;10.70;99.90;;;;;;5037957;28;20037;-85
2022/11/06 11:11:59;;;;;;;8.65;1.98;;;10.70;99.90;;;;;;5044224;28;20552;-87
2022/11/06 11:14:30;;;;;;;12.38;2.70;;;10.70;99.90;;;;;;5031135;28;20112;-87
2022/11/06 11:16:59;;;;;;;21.25;3.80;;;10.80;99.90;;;;;;5033967;28;20037;-81
2022/11/06 11:19:42;;;;;;;11.55;2.63;;;10.80;99.90;;;;;;5024586;28;20033;-85
2022/11/06 11:22:20;;;;;;;10.10;2.55;;;10.90;99.90;;;;;;5042862;28;20131;-87
2022/11/06 11:25:00;;;;;;;11.88;2.88;;;10.90;99.90;;;;;;5024696;28;20029;-85
2022/11/06 11:27:27;;;;;;;11.65;2.70;;;10.90;99.90;;;;;;5042306;28;20032;-85
2022/11/06 11:29:54;;;;;;;12.00;3.05;;;10.90;99.90;;;;;;5047012;28;20032;-86
2022/11/06 11:32:21;;;;;;;9.35;2.92;;;10.90;99.90;;;;;;5030093;28;20083;-85
2022/11/06 11:34:52;;;;;;;14.98;2.50;;;10.90;99.90;;;;;;5040764;28;20061;-89
2022/11/06 11:37:30;;;;;;;11.02;3.55;;;10.90;99.90;;;;;;5047888;28;20029;-85
2022/11/06 11:40:35;;;;;;;9.25;2.75;;;10.90;99.90;;;;;;5045961;28;20025;-86
2022/11/06 11:43:28;;;;;;;11.05;2.78;;;11.00;99.90;;;;;;5041657;28;20040;-86
2022/11/06 11:46:02;;;;;;;13.05;2.50;;;11.00;99.90;;;;;;5046692;28;20032;-83
2022/11/06 11:48:41;;;;;;;10.75;3.08;;;11.10;99.90;;;;;;5045154;28;20485;-86
2022/11/06 11:51:35;;;;;;;7.07;2.83;;;11.10;99.90;;;;;;5049470;28;20037;-87
2022/11/06 11:54:12;;;;;;;11.40;2.72;;;11.10;99.90;;;;;;5047489;28;20460;-86
2022/11/06 11:56:51;;;;;;;12.50;2.72;;;11.10;99.90;;;;;;5058365;28;20036;-87
2022/11/06 11:59:23;;;;;;;10.57;2.70;;;11.00;99.90;;;;;;5050036;28;20422;-87
2022/11/06 12:01:49;;;;;;;10.07;2.60;;;11.00;99.90;;;;;;5020914;28;20032;-87
2022/11/06 12:04:26;;;;;;;13.88;3.30;;;11.10;99.90;;;;;;5047365;28;20152;-86
2022/11/06 12:06:58;;;;;;;7.35;2.80;;;11.10;99.90;;;;;;5044874;28;20060;-88
2022/11/06 12:09:25;;;;;;;9.90;3.13;;;11.10;99.90;;;;;;5054361;28;20065;-83
2022/11/06 12:11:53;;;;;;;10.13;2.60;;;11.10;99.90;;;;;;5046541;28;20469;-86
2022/11/06 12:14:31;;;;;;;7.35;2.47;;;11.20;99.90;;;;;;5049569;28;20036;-85
2022/11/06 12:17:12;;;;;;;11.43;3.30;;;11.20;99.90;;;;;;5034347;28;20026;-88
2022/11/06 12:19:41;;;;;;;10.38;2.67;;;11.30;99.90;;;;;;5050575;28;20116;-86
2022/11/06 12:22:15;;;;;;;12.65;2.95;;;11.30;99.90;;;;;;5046297;28;20043;-87
2022/11/06 12:24:51;;;;;;;6.03;2.03;;;11.30;99.90;;;;;;5043675;28;20136;-89
2022/11/06 12:27:37;;;;;;;8.48;2.60;;;11.30;99.90;;;;;;5042348;28;20083;-87
2022/11/06 12:30:09;;;;;;;;;;;11.30;99.90;;;;;;5049990;28;20086;-88
2022/11/06 12:33:12;;;;;;;7.22;2.25;;;11.40;99.90;;;;;;5050119;28;20276;-86
2022/11/06 12:36:03;;;;;;;9.48;2.30;;;11.50;99.90;;;;;;5048698;28;20116;-88
2022/11/06 12:38:29;;;;;;;12.85;2.83;;;11.50;99.90;;;;;;5037919;28;20033;-86
2022/11/06 12:41:09;;;;;;;6.35;2.35;;;11.60;99.90;;;;;;5045222;28;20378;-86
2022/11/06 12:43:47;;;;;;;8.07;2.20;;;11.60;99.90;;;;;;5043403;28;20032;-87
2022/11/06 12:46:35;;;;;;;10.40;1.90;;;11.60;99.90;;;;;;5032861;28;20482;-90
2022/11/06 12:49:36;;;;;;;8.05;2.50;;;11.60;99.90;;;;;;5039609;28;20470;-87
2022/11/06 12:52:04;;;;;;;12.15;3.10;;;11.70;99.90;;;;;;5032015;28;21517;-88
2022/11/06 12:54:39;;;;;;;6.45;2.10;;;11.80;99.90;;;;;;5044992;28;20029;-85
2022/11/06 12:57:29;;;;;;;10.50;2.17;;;11.80;99.90;;;;;;5041135;28;20061;-87
2022/11/06 13:00:13;;;;;;;6.95;2.80;;;11.80;99.90;;;;;;5045086;28;20442;-85
2022/11/06 13:03:14;;;;;;;6.28;2.60;;;11.80;99.90;;;;;;5047910;28;20504;-86
2022/11/06 13:05:51;;;;;;;6.18;1.75;;;11.70;99.90;;;;;;5036568;28;20032;-82
2022/11/06 13:08:32;;;;;;;8.98;2.40;;;11.70;99.90;;;;;;5046533;28;20115;-88
2022/11/06 13:11:35;;;;;;;8.45;1.77;;;11.70;99.90;;;;;;5046568;28;20040;-86
2022/11/06 13:14:15;;;;;;;5.75;1.83;;;11.80;99.90;;;;;;5042204;28;20029;-86
2022/11/06 13:16:47;;;;;;;16.35;2.28;;;11.80;99.90;;;;;;5045203;28;20024;-85
2022/11/06 13:19:39;;;;;;;8.07;2.35;;;11.70;99.90;;;;;;5045325;28;20113;-88
2022/11/06 13:22:26;;;;;;;14.77;2.70;;;11.70;99.90;;;;;;5048369;28;20029;-88
2022/11/06 13:25:29;;;;;;;5.43;1.98;;;11.80;99.90;;;;;;5042718;28;20034;-87
2022/11/06 13:28:19;;;;;;;7.10;2.10;;;11.70;99.90;;;;;;5044998;28;20494;-88